sensor_id;sensor_type;location;lat;lon;timestamp;temperature;humidity
22742;DHT22;11538;48.884;8.696;2023-09-08T00:01:59;20.30;99.90
22742;DHT22;11538;48.884;8.696;2023-09-08T00:04:26;20.30;99.90
22742;DHT22;11538;48.884;8.696;2023-09-08T00:06:53;20.30;99.90
22742;DHT22;11538;48.884;8.696;2023-09-08T00:09:20;20.30;99.90
22742;DHT22;11538;48.884;8.696;2023-09-08T00:11:47;20.20;99.90
22742;DHT22;11538;48.884;8.696;2023-09-08T00:14:14;20.20;99.90
22742;DHT22;11538;48.884;8.696;2023-09-08T00:16:41;20.20;99.90
22742;DHT22;11538;48.884;8.696;2023-09-08T00:19:12;20.20;99.90
22742;DHT22;11538;48.884;8.696;2023-09-08T00:21:39;20.10;99.90
22742;DHT22;11538;48.884;8.696;2023-09-08T00:24:06;20.10;99.90
22742;DHT22;11538;48.884;8.696;2023-09-08T00:26:33;20.10;99.90
22742;DHT22;11538;48.884;8.696;2023-09-08T00:29:01;20.10;99.90
22742;DHT22;11538;48.884;8.696;2023-09-08T00:31:28;20.00;99.90
22742;DHT22;11538;48.884;8.696;2023-09-08T00:33:54;20.00;99.90
22742;DHT22;11538;48.884;8.696;2023-09-08T00:36:21;20.00;99.90
22742;DHT22;11538;48.884;8.696;2023-09-08T00:38:49;20.00;99.90
22742;DHT22;11538;48.884;8.696;2023-09-08T00:41:16;20.10;99.90
22742;DHT22;11538;48.884;8.696;2023-09-08T00:43:43;20.10;99.90
22742;DHT22;11538;48.884;8.696;2023-09-08T00:46:10;20.00;99.90
22742;DHT22;11538;48.884;8.696;2023-09-08T00:48:39;20.00;99.90
22742;DHT22;11538;48.884;8.696;2023-09-08T00:51:06;19.90;99.90
22742;DHT22;11538;48.884;8.696;2023-09-08T00:53:37;19.90;99.90
22742;DHT22;11538;48.884;8.696;2023-09-08T00:56:04;19.90;99.90
22742;DHT22;11538;48.884;8.696;2023-09-08T00:58:32;19.90;99.90
22742;DHT22;11538;48.884;8.696;2023-09-08T01:00:59;19.90;99.90
22742;DHT22;11538;48.884;8.696;2023-09-08T01:03:27;20.00;99.90
22742;DHT22;11538;48.884;8.696;2023-09-08T01:05:54;20.00;99.90
22742;DHT22;11538;48.884;8.696;2023-09-08T01:08:22;19.90;99.90
22742;DHT22;11538;48.884;8.696;2023-09-08T01:10:49;19.90;99.90
22742;DHT22;11538;48.884;8.696;2023-09-08T01:13:16;19.90;99.90
22742;DHT22;11538;48.884;8.696;2023-09-08T01:15:43;19.80;99.90
22742;DHT22;11538;48.884;8.696;2023-09-08T01:18:10;19.80;99.90
22742;DHT22;11538;48.884;8.696;2023-09-08T01:26:43;19.80;99.90
22742;DHT22;11538;48.884;8.696;2023-09-08T01:29:10;19.80;99.90
22742;DHT22;11538;48.884;8.696;2023-09-08T01:31:39;19.70;99.90
22742;DHT22;11538;48.884;8.696;2023-09-08T01:34:08;19.70;99.90
22742;DHT22;11538;48.884;8.696;2023-09-08T01:36:36;19.70;99.90
22742;DHT22;11538;48.884;8.696;2023-09-08T01:39:03;19.70;99.90
22742;DHT22;11538;48.884;8.696;2023-09-08T01:41:30;19.70;99.90
22742;DHT22;11538;48.884;8.696;2023-09-08T01:44:00;19.60;99.90
22742;DHT22;11538;48.884;8.696;2023-09-08T01:46:31;19.60;99.90
22742;DHT22;11538;48.884;8.696;2023-09-08T01:48:58;19.60;99.90
22742;DHT22;11538;48.884;8.696;2023-09-08T01:51:25;19.60;99.90
22742;DHT22;11538;48.884;8.696;2023-09-08T01:53:52;19.50;99.90
22742;DHT22;11538;48.884;8.696;2023-09-08T01:56:19;19.50;99.90
22742;DHT22;11538;48.884;8.696;2023-09-08T01:58:46;19.50;99.90
22742;DHT22;11538;48.884;8.696;2023-09-08T02:01:13;19.50;99.90
22742;DHT22;11538;48.884;8.696;2023-09-08T02:03:55;19.50;99.90
22742;DHT22;11538;48.884;8.696;2023-09-08T02:06:22;19.40;99.90
22742;DHT22;11538;48.884;8.696;2023-09-08T02:08:49;19.40;99.90
22742;DHT22;11538;48.884;8.696;2023-09-08T02:11:16;19.40;99.90
22742;DHT22;11538;48.884;8.696;2023-09-08T02:13:43;19.40;99.90
22742;DHT22;11538;48.884;8.696;2023-09-08T02:16:16;19.40;99.90
22742;DHT22;11538;48.884;8.696;2023-09-08T02:18:44;19.40;99.90
22742;DHT22;11538;48.884;8.696;2023-09-08T02:21:11;19.30;99.90
22742;DHT22;11538;48.884;8.696;2023-09-08T02:23:39;19.30;99.90
22742;DHT22;11538;48.884;8.696;2023-09-08T02:26:05;19.30;99.90
22742;DHT22;11538;48.884;8.696;2023-09-08T02:28:32;19.30;99.90
22742;DHT22;11538;48.884;8.696;2023-09-08T02:31:00;19.30;99.90
22742;DHT22;11538;48.884;8.696;2023-09-08T02:33:27;19.30;99.90
22742;DHT22;11538;48.884;8.696;2023-09-08T02:36:02;19.30;99.90
22742;DHT22;11538;48.884;8.696;2023-09-08T02:38:35;19.30;99.90
22742;DHT22;11538;48.884;8.696;2023-09-08T02:41:02;19.30;99.90
22742;DHT22;11538;48.884;8.696;2023-09-08T02:43:29;19.20;99.90
22742;DHT22;11538;48.884;8.696;2023-09-08T02:45:56;19.20;99.90
22742;DHT22;11538;48.884;8.696;2023-09-08T02:48:24;19.10;99.90
22742;DHT22;11538;48.884;8.696;2023-09-08T02:50:51;19.10;99.90
22742;DHT22;11538;48.884;8.696;2023-09-08T02:53:20;19.10;99.90
22742;DHT22;11538;48.884;8.696;2023-09-08T02:55:48;19.10;99.90
22742;DHT22;11538;48.884;8.696;2023-09-08T02:58:15;19.00;99.90
22742;DHT22;11538;48.884;8.696;2023-09-08T03:00:42;19.00;99.90
22742;DHT22;11538;48.884;8.696;2023-09-08T03:03:09;19.00;99.90
22742;DHT22;11538;48.884;8.696;2023-09-08T03:05:36;19.00;99.90
22742;DHT22;11538;48.884;8.696;2023-09-08T03:08:06;18.90;99.90
22742;DHT22;11538;48.884;8.696;2023-09-08T03:10:33;18.90;99.90
22742;DHT22;11538;48.884;8.696;2023-09-08T03:13:01;18.90;99.90
22742;DHT22;11538;48.884;8.696;2023-09-08T03:15:28;18.80;99.90
22742;DHT22;11538;48.884;8.696;2023-09-08T03:17:55;18.80;99.90
22742;DHT22;11538;48.884;8.696;2023-09-08T03:20:25;18.80;99.90
22742;DHT22;11538;48.884;8.696;2023-09-08T03:22:53;18.70;99.90
22742;DHT22;11538;48.884;8.696;2023-09-08T03:25:20;18.70;99.90
22742;DHT22;11538;48.884;8.696;2023-09-08T03:27:48;18.70;99.90
22742;DHT22;11538;48.884;8.696;2023-09-08T03:30:15;18.70;99.90
22742;DHT22;11538;48.884;8.696;2023-09-08T03:32:41;18.70;99.90
22742;DHT22;11538;48.884;8.696;2023-09-08T03:35:08;18.60;99.90
22742;DHT22;11538;48.884;8.696;2023-09-08T03:37:36;18.50;99.90
22742;DHT22;11538;48.884;8.696;2023-09-08T03:40:03;18.60;99.90
22742;DHT22;11538;48.884;8.696;2023-09-08T03:42:33;18.60;99.90
22742;DHT22;11538;48.884;8.696;2023-09-08T03:45:01;18.50;99.90
22742;DHT22;11538;48.884;8.696;2023-09-08T03:47:28;18.50;99.90
22742;DHT22;11538;48.884;8.696;2023-09-08T03:49:55;18.50;99.90
22742;DHT22;11538;48.884;8.696;2023-09-08T03:52:23;18.50;99.90
22742;DHT22;11538;48.884;8.696;2023-09-08T03:54:51;18.50;99.90
22742;DHT22;11538;48.884;8.696;2023-09-08T03:57:18;18.50;99.90
22742;DHT22;11538;48.884;8.696;2023-09-08T03:59:45;18.50;99.90
22742;DHT22;11538;48.884;8.696;2023-09-08T04:02:12;18.50;99.90
22742;DHT22;11538;48.884;8.696;2023-09-08T04:04:39;18.50;99.90
22742;DHT22;11538;48.884;8.696;2023-09-08T04:07:05;18.50;99.90
22742;DHT22;11538;48.884;8.696;2023-09-08T04:09:32;18.50;99.90
22742;DHT22;11538;48.884;8.696;2023-09-08T04:12:00;18.50;99.90
22742;DHT22;11538;48.884;8.696;2023-09-08T04:14:28;18.40;99.90
22742;DHT22;11538;48.884;8.696;2023-09-08T04:16:56;18.40;99.90
22742;DHT22;11538;48.884;8.696;2023-09-08T04:19:23;18.40;99.90
22742;DHT22;11538;48.884;8.696;2023-09-08T04:21:50;18.40;99.90
22742;DHT22;11538;48.884;8.696;2023-09-08T04:24:17;18.40;99.90
22742;DHT22;11538;48.884;8.696;2023-09-08T04:26:44;18.30;99.90
22742;DHT22;11538;48.884;8.696;2023-09-08T04:29:11;18.30;99.90
22742;DHT22;11538;48.884;8.696;2023-09-08T04:31:38;18.40;99.90
22742;DHT22;11538;48.884;8.696;2023-09-08T04:34:05;18.40;99.90
22742;DHT22;11538;48.884;8.696;2023-09-08T04:36:32;18.40;99.90
22742;DHT22;11538;48.884;8.696;2023-09-08T04:38:59;18.40;99.90
22742;DHT22;11538;48.884;8.696;2023-09-08T04:41:26;18.40;99.90
22742;DHT22;11538;48.884;8.696;2023-09-08T04:43:53;18.40;99.90
22742;DHT22;11538;48.884;8.696;2023-09-08T04:46:20;18.40;99.90
22742;DHT22;11538;48.884;8.696;2023-09-08T04:48:47;18.40;99.90
22742;DHT22;11538;48.884;8.696;2023-09-08T04:51:14;18.40;99.90
22742;DHT22;11538;48.884;8.696;2023-09-08T04:53:43;18.30;99.90
22742;DHT22;11538;48.884;8.696;2023-09-08T04:56:10;18.30;99.90
22742;DHT22;11538;48.884;8.696;2023-09-08T04:58:37;18.30;99.90
22742;DHT22;11538;48.884;8.696;2023-09-08T05:01:04;18.30;99.90
22742;DHT22;11538;48.884;8.696;2023-09-08T05:03:32;18.30;99.90
22742;DHT22;11538;48.884;8.696;2023-09-08T05:05:59;18.30;99.90
22742;DHT22;11538;48.884;8.696;2023-09-08T05:08:28;18.20;99.90
22742;DHT22;11538;48.884;8.696;2023-09-08T05:10:55;18.30;99.90
22742;DHT22;11538;48.884;8.696;2023-09-08T05:13:22;18.30;99.90
22742;DHT22;11538;48.884;8.696;2023-09-08T05:15:57;18.30;99.90
22742;DHT22;11538;48.884;8.696;2023-09-08T05:18:27;18.40;99.90
22742;DHT22;11538;48.884;8.696;2023-09-08T05:20:54;18.40;99.90
22742;DHT22;11538;48.884;8.696;2023-09-08T05:23:21;18.40;99.90
22742;DHT22;11538;48.884;8.696;2023-09-08T05:25:48;18.40;99.90
22742;DHT22;11538;48.884;8.696;2023-09-08T05:28:15;18.40;99.90
22742;DHT22;11538;48.884;8.696;2023-09-08T05:30:42;18.50;99.90
22742;DHT22;11538;48.884;8.696;2023-09-08T05:33:09;18.50;99.90
22742;DHT22;11538;48.884;8.696;2023-09-08T05:35:36;18.50;99.90
22742;DHT22;11538;48.884;8.696;2023-09-08T05:38:03;18.50;99.90
22742;DHT22;11538;48.884;8.696;2023-09-08T05:40:31;18.50;99.90
22742;DHT22;11538;48.884;8.696;2023-09-08T05:42:58;18.50;99.90
22742;DHT22;11538;48.884;8.696;2023-09-08T05:45:25;18.50;99.90
22742;DHT22;11538;48.884;8.696;2023-09-08T05:47:52;18.50;99.90
22742;DHT22;11538;48.884;8.696;2023-09-08T05:50:20;18.50;99.90
22742;DHT22;11538;48.884;8.696;2023-09-08T05:52:48;18.50;99.90
22742;DHT22;11538;48.884;8.696;2023-09-08T05:55:15;18.50;99.90
22742;DHT22;11538;48.884;8.696;2023-09-08T05:57:42;18.50;99.90
22742;DHT22;11538;48.884;8.696;2023-09-08T06:00:09;18.50;99.90
22742;DHT22;11538;48.884;8.696;2023-09-08T06:02:36;18.50;99.90
22742;DHT22;11538;48.884;8.696;2023-09-08T06:05:03;18.50;99.90
22742;DHT22;11538;48.884;8.696;2023-09-08T06:07:30;18.50;99.90
22742;DHT22;11538;48.884;8.696;2023-09-08T06:09:57;18.50;99.90
22742;DHT22;11538;48.884;8.696;2023-09-08T06:12:24;18.50;99.90
22742;DHT22;11538;48.884;8.696;2023-09-08T06:14:51;18.50;99.90
22742;DHT22;11538;48.884;8.696;2023-09-08T06:17:18;18.50;99.90
22742;DHT22;11538;48.884;8.696;2023-09-08T06:19:45;18.60;99.90
22742;DHT22;11538;48.884;8.696;2023-09-08T06:22:12;18.60;99.90
22742;DHT22;11538;48.884;8.696;2023-09-08T06:24:39;18.70;99.90
22742;DHT22;11538;48.884;8.696;2023-09-08T06:27:07;18.70;99.90
22742;DHT22;11538;48.884;8.696;2023-09-08T06:29:34;18.70;99.90
22742;DHT22;11538;48.884;8.696;2023-09-08T06:32:01;18.70;99.90
22742;DHT22;11538;48.884;8.696;2023-09-08T06:34:27;18.80;99.90
22742;DHT22;11538;48.884;8.696;2023-09-08T06:36:55;18.80;99.90
22742;DHT22;11538;48.884;8.696;2023-09-08T06:39:22;18.90;99.90
22742;DHT22;11538;48.884;8.696;2023-09-08T06:41:49;18.90;99.90
22742;DHT22;11538;48.884;8.696;2023-09-08T06:44:15;18.90;99.90
22742;DHT22;11538;48.884;8.696;2023-09-08T06:46:42;19.00;99.90
22742;DHT22;11538;48.884;8.696;2023-09-08T06:49:09;19.00;99.90
22742;DHT22;11538;48.884;8.696;2023-09-08T06:51:36;19.10;99.90
22742;DHT22;11538;48.884;8.696;2023-09-08T06:54:03;19.10;99.90
22742;DHT22;11538;48.884;8.696;2023-09-08T06:56:31;19.20;99.90
22742;DHT22;11538;48.884;8.696;2023-09-08T06:58:57;19.30;99.90
22742;DHT22;11538;48.884;8.696;2023-09-08T07:01:24;19.30;99.90
22742;DHT22;11538;48.884;8.696;2023-09-08T07:03:52;19.30;99.90
22742;DHT22;11538;48.884;8.696;2023-09-08T07:06:19;19.40;99.90
22742;DHT22;11538;48.884;8.696;2023-09-08T07:08:49;19.50;99.90
22742;DHT22;11538;48.884;8.696;2023-09-08T07:11:16;19.50;99.90
22742;DHT22;11538;48.884;8.696;2023-09-08T07:13:44;19.60;99.90
22742;DHT22;11538;48.884;8.696;2023-09-08T07:16:11;19.70;99.90
22742;DHT22;11538;48.884;8.696;2023-09-08T07:18:38;19.70;99.90
22742;DHT22;11538;48.884;8.696;2023-09-08T07:21:05;19.80;99.90
22742;DHT22;11538;48.884;8.696;2023-09-08T07:23:33;19.80;99.90
22742;DHT22;11538;48.884;8.696;2023-09-08T07:26:03;19.90;99.90
22742;DHT22;11538;48.884;8.696;2023-09-08T07:28:30;20.00;99.90
22742;DHT22;11538;48.884;8.696;2023-09-08T07:31:04;20.10;99.90
22742;DHT22;11538;48.884;8.696;2023-09-08T07:33:32;20.20;99.90
22742;DHT22;11538;48.884;8.696;2023-09-08T07:36:06;20.30;99.90
22742;DHT22;11538;48.884;8.696;2023-09-08T07:38:34;20.40;99.90
22742;DHT22;11538;48.884;8.696;2023-09-08T07:41:02;20.50;99.90
22742;DHT22;11538;48.884;8.696;2023-09-08T07:43:29;20.60;99.90
22742;DHT22;11538;48.884;8.696;2023-09-08T07:45:57;20.70;99.90
22742;DHT22;11538;48.884;8.696;2023-09-08T07:48:24;20.90;99.90
22742;DHT22;11538;48.884;8.696;2023-09-08T07:50:51;21.00;99.90
22742;DHT22;11538;48.884;8.696;2023-09-08T07:53:18;21.20;99.90
22742;DHT22;11538;48.884;8.696;2023-09-08T07:55:45;21.40;99.90
22742;DHT22;11538;48.884;8.696;2023-09-08T07:58:12;21.50;99.90
22742;DHT22;11538;48.884;8.696;2023-09-08T08:00:39;21.70;99.90
22742;DHT22;11538;48.884;8.696;2023-09-08T08:03:06;21.90;99.90
22742;DHT22;11538;48.884;8.696;2023-09-08T08:05:33;22.10;99.90
22742;DHT22;11538;48.884;8.696;2023-09-08T08:08:01;22.40;99.90
22742;DHT22;11538;48.884;8.696;2023-09-08T08:10:28;22.60;99.90
22742;DHT22;11538;48.884;8.696;2023-09-08T08:12:55;22.90;99.90
22742;DHT22;11538;48.884;8.696;2023-09-08T08:15:22;23.20;99.90
22742;DHT22;11538;48.884;8.696;2023-09-08T08:18:01;23.40;99.90
22742;DHT22;11538;48.884;8.696;2023-09-08T08:20:28;23.70;99.90
22742;DHT22;11538;48.884;8.696;2023-09-08T08:22:55;23.90;99.90
22742;DHT22;11538;48.884;8.696;2023-09-08T08:25:22;24.20;99.90
22742;DHT22;11538;48.884;8.696;2023-09-08T08:27:49;24.40;99.90
22742;DHT22;11538;48.884;8.696;2023-09-08T08:30:16;24.60;99.90
22742;DHT22;11538;48.884;8.696;2023-09-08T08:32:44;24.90;99.90
22742;DHT22;11538;48.884;8.696;2023-09-08T08:35:12;25.10;99.90
22742;DHT22;11538;48.884;8.696;2023-09-08T08:37:40;25.30;99.90
22742;DHT22;11538;48.884;8.696;2023-09-08T08:40:10;25.50;99.90
22742;DHT22;11538;48.884;8.696;2023-09-08T08:42:41;25.80;99.90
22742;DHT22;11538;48.884;8.696;2023-09-08T08:45:09;26.00;99.90
22742;DHT22;11538;48.884;8.696;2023-09-08T08:47:37;26.20;99.90
22742;DHT22;11538;48.884;8.696;2023-09-08T08:50:08;26.50;99.90
22742;DHT22;11538;48.884;8.696;2023-09-08T08:52:38;26.70;99.90
22742;DHT22;11538;48.884;8.696;2023-09-08T08:55:06;26.90;99.90
22742;DHT22;11538;48.884;8.696;2023-09-08T08:57:37;27.10;99.90
22742;DHT22;11538;48.884;8.696;2023-09-08T09:00:07;27.40;99.90
22742;DHT22;11538;48.884;8.696;2023-09-08T09:02:41;27.50;99.90
22742;DHT22;11538;48.884;8.696;2023-09-08T09:05:13;27.60;99.90
22742;DHT22;11538;48.884;8.696;2023-09-08T09:07:44;27.80;99.90
22742;DHT22;11538;48.884;8.696;2023-09-08T09:10:11;28.00;99.90
22742;DHT22;11538;48.884;8.696;2023-09-08T09:12:38;28.20;99.90
22742;DHT22;11538;48.884;8.696;2023-09-08T09:15:06;28.20;99.90
22742;DHT22;11538;48.884;8.696;2023-09-08T09:17:36;28.40;99.90
22742;DHT22;11538;48.884;8.696;2023-09-08T09:20:14;28.50;99.90
22742;DHT22;11538;48.884;8.696;2023-09-08T09:22:44;28.60;99.90
22742;DHT22;11538;48.884;8.696;2023-09-08T09:25:27;28.70;99.90
22742;DHT22;11538;48.884;8.696;2023-09-08T09:27:58;28.80;99.90
22742;DHT22;11538;48.884;8.696;2023-09-08T09:30:28;28.90;99.90
22742;DHT22;11538;48.884;8.696;2023-09-08T09:33:12;29.10;99.90
22742;DHT22;11538;48.884;8.696;2023-09-08T09:35:41;29.20;99.90
22742;DHT22;11538;48.884;8.696;2023-09-08T09:38:10;29.40;99.90
22742;DHT22;11538;48.884;8.696;2023-09-08T09:40:38;29.50;99.90
22742;DHT22;11538;48.884;8.696;2023-09-08T09:43:06;29.70;99.90
22742;DHT22;11538;48.884;8.696;2023-09-08T09:45:35;29.80;99.90
22742;DHT22;11538;48.884;8.696;2023-09-08T09:48:04;30.00;99.90
22742;DHT22;11538;48.884;8.696;2023-09-08T09:50:34;30.20;99.90
22742;DHT22;11538;48.884;8.696;2023-09-08T09:53:08;30.40;99.90
22742;DHT22;11538;48.884;8.696;2023-09-08T09:55:41;30.60;99.90
22742;DHT22;11538;48.884;8.696;2023-09-08T09:58:10;30.70;99.90
22742;DHT22;11538;48.884;8.696;2023-09-08T10:00:39;30.80;99.90
22742;DHT22;11538;48.884;8.696;2023-09-08T10:03:08;30.90;99.90
22742;DHT22;11538;48.884;8.696;2023-09-08T10:05:36;31.00;99.90
22742;DHT22;11538;48.884;8.696;2023-09-08T10:08:04;31.10;99.90
22742;DHT22;11538;48.884;8.696;2023-09-08T10:10:32;31.20;99.90
22742;DHT22;11538;48.884;8.696;2023-09-08T10:13:06;31.20;99.90
22742;DHT22;11538;48.884;8.696;2023-09-08T10:15:34;31.40;99.90
22742;DHT22;11538;48.884;8.696;2023-09-08T10:18:04;31.50;99.90
22742;DHT22;11538;48.884;8.696;2023-09-08T10:20:33;31.70;99.90
22742;DHT22;11538;48.884;8.696;2023-09-08T10:23:23;31.80;99.90
22742;DHT22;11538;48.884;8.696;2023-09-08T10:26:03;31.90;99.90
22742;DHT22;11538;48.884;8.696;2023-09-08T10:28:34;32.00;99.90
22742;DHT22;11538;48.884;8.696;2023-09-08T10:31:04;32.10;99.90
22742;DHT22;11538;48.884;8.696;2023-09-08T10:33:32;32.20;99.90
22742;DHT22;11538;48.884;8.696;2023-09-08T10:36:02;32.40;99.90
22742;DHT22;11538;48.884;8.696;2023-09-08T10:38:33;32.40;99.90
22742;DHT22;11538;48.884;8.696;2023-09-08T10:41:26;32.50;99.90
22742;DHT22;11538;48.884;8.696;2023-09-08T10:43:56;32.60;99.90
22742;DHT22;11538;48.884;8.696;2023-09-08T10:46:27;32.60;99.90
22742;DHT22;11538;48.884;8.696;2023-09-08T10:48:55;32.80;99.90
22742;DHT22;11538;48.884;8.696;2023-09-08T10:51:30;32.90;99.90
22742;DHT22;11538;48.884;8.696;2023-09-08T10:53:58;33.00;99.90
22742;DHT22;11538;48.884;8.696;2023-09-08T10:56:48;33.00;99.90
22742;DHT22;11538;48.884;8.696;2023-09-08T10:59:27;33.20;99.90
22742;DHT22;11538;48.884;8.696;2023-09-08T11:01:55;33.40;99.90
22742;DHT22;11538;48.884;8.696;2023-09-08T11:04:23;33.60;99.90
22742;DHT22;11538;48.884;8.696;2023-09-08T11:06:52;33.60;99.90
22742;DHT22;11538;48.884;8.696;2023-09-08T11:09:19;33.70;99.90
22742;DHT22;11538;48.884;8.696;2023-09-08T11:11:46;33.90;99.90
22742;DHT22;11538;48.884;8.696;2023-09-08T11:14:13;33.90;99.90
22742;DHT22;11538;48.884;8.696;2023-09-08T11:16:42;34.10;99.90
22742;DHT22;11538;48.884;8.696;2023-09-08T11:19:10;34.00;99.90
22742;DHT22;11538;48.884;8.696;2023-09-08T11:21:37;34.10;99.90
22742;DHT22;11538;48.884;8.696;2023-09-08T11:24:07;34.30;99.90
22742;DHT22;11538;48.884;8.696;2023-09-08T11:26:37;34.40;99.90
22742;DHT22;11538;48.884;8.696;2023-09-08T11:29:05;34.60;99.90
22742;DHT22;11538;48.884;8.696;2023-09-08T11:31:32;34.80;99.90
22742;DHT22;11538;48.884;8.696;2023-09-08T11:33:59;35.00;99.90
22742;DHT22;11538;48.884;8.696;2023-09-08T11:36:26;35.30;99.90
22742;DHT22;11538;48.884;8.696;2023-09-08T11:38:55;35.50;99.90
22742;DHT22;11538;48.884;8.696;2023-09-08T11:41:22;35.70;99.90
22742;DHT22;11538;48.884;8.696;2023-09-08T11:43:50;35.90;99.90
22742;DHT22;11538;48.884;8.696;2023-09-08T11:46:19;36.10;99.90
22742;DHT22;11538;48.884;8.696;2023-09-08T11:48:46;36.30;99.90
22742;DHT22;11538;48.884;8.696;2023-09-08T11:51:14;36.40;99.90
22742;DHT22;11538;48.884;8.696;2023-09-08T11:53:41;36.60;99.90
22742;DHT22;11538;48.884;8.696;2023-09-08T11:56:09;36.80;99.90
22742;DHT22;11538;48.884;8.696;2023-09-08T11:58:36;37.00;99.90
22742;DHT22;11538;48.884;8.696;2023-09-08T12:01:04;37.20;99.90
22742;DHT22;11538;48.884;8.696;2023-09-08T12:03:31;37.40;99.90
22742;DHT22;11538;48.884;8.696;2023-09-08T12:05:59;37.60;99.90
22742;DHT22;11538;48.884;8.696;2023-09-08T12:08:26;37.70;99.90
22742;DHT22;11538;48.884;8.696;2023-09-08T12:10:54;37.80;99.90
22742;DHT22;11538;48.884;8.696;2023-09-08T12:13:23;37.90;99.90
22742;DHT22;11538;48.884;8.696;2023-09-08T12:15:50;38.00;99.90
22742;DHT22;11538;48.884;8.696;2023-09-08T12:18:17;38.00;99.90
22742;DHT22;11538;48.884;8.696;2023-09-08T12:20:44;38.20;99.90
22742;DHT22;11538;48.884;8.696;2023-09-08T12:23:20;38.40;99.90
22742;DHT22;11538;48.884;8.696;2023-09-08T12:25:49;38.40;99.90
22742;DHT22;11538;48.884;8.696;2023-09-08T12:28:20;38.40;99.90
22742;DHT22;11538;48.884;8.696;2023-09-08T12:30:51;38.40;99.90
22742;DHT22;11538;48.884;8.696;2023-09-08T12:33:20;38.50;99.90
22742;DHT22;11538;48.884;8.696;2023-09-08T12:35:49;38.70;99.90
22742;DHT22;11538;48.884;8.696;2023-09-08T12:38:18;38.90;99.90
22742;DHT22;11538;48.884;8.696;2023-09-08T12:40:45;39.10;99.90
22742;DHT22;11538;48.884;8.696;2023-09-08T12:43:12;39.20;99.90
22742;DHT22;11538;48.884;8.696;2023-09-08T12:45:57;39.20;99.90
22742;DHT22;11538;48.884;8.696;2023-09-08T12:48:24;39.30;99.90
22742;DHT22;11538;48.884;8.696;2023-09-08T12:50:52;39.30;99.90
22742;DHT22;11538;48.884;8.696;2023-09-08T12:53:19;39.40;99.90
22742;DHT22;11538;48.884;8.696;2023-09-08T12:55:47;39.50;99.90
22742;DHT22;11538;48.884;8.696;2023-09-08T12:58:14;39.50;99.90
22742;DHT22;11538;48.884;8.696;2023-09-08T13:00:43;39.50;99.90
22742;DHT22;11538;48.884;8.696;2023-09-08T13:03:10;39.60;99.90
22742;DHT22;11538;48.884;8.696;2023-09-08T13:05:37;39.80;99.90
22742;DHT22;11538;48.884;8.696;2023-09-08T13:08:06;39.90;99.90
22742;DHT22;11538;48.884;8.696;2023-09-08T13:10:33;40.00;99.90
22742;DHT22;11538;48.884;8.696;2023-09-08T13:13:01;40.10;99.90
22742;DHT22;11538;48.884;8.696;2023-09-08T13:15:28;40.10;99.90
22742;DHT22;11538;48.884;8.696;2023-09-08T13:17:55;40.10;99.90
22742;DHT22;11538;48.884;8.696;2023-09-08T13:20:23;40.10;99.90
22742;DHT22;11538;48.884;8.696;2023-09-08T13:22:50;40.20;99.90
22742;DHT22;11538;48.884;8.696;2023-09-08T13:25:17;40.10;99.90
22742;DHT22;11538;48.884;8.696;2023-09-08T13:27:46;40.20;99.90
22742;DHT22;11538;48.884;8.696;2023-09-08T13:30:15;40.20;99.90
22742;DHT22;11538;48.884;8.696;2023-09-08T13:32:44;40.20;99.90
22742;DHT22;11538;48.884;8.696;2023-09-08T13:35:12;40.20;99.90
22742;DHT22;11538;48.884;8.696;2023-09-08T13:37:39;40.10;99.90
22742;DHT22;11538;48.884;8.696;2023-09-08T13:40:07;40.10;99.90
22742;DHT22;11538;48.884;8.696;2023-09-08T13:42:35;40.10;99.90
22742;DHT22;11538;48.884;8.696;2023-09-08T13:45:03;40.00;99.90
22742;DHT22;11538;48.884;8.696;2023-09-08T13:47:31;39.90;99.90
22742;DHT22;11538;48.884;8.696;2023-09-08T13:49:59;39.80;99.90
22742;DHT22;11538;48.884;8.696;2023-09-08T13:52:31;39.90;99.90
22742;DHT22;11538;48.884;8.696;2023-09-08T13:55:01;39.80;99.90
22742;DHT22;11538;48.884;8.696;2023-09-08T13:57:37;39.80;99.90
22742;DHT22;11538;48.884;8.696;2023-09-08T14:00:07;39.80;99.90
22742;DHT22;11538;48.884;8.696;2023-09-08T14:02:42;39.70;99.90
22742;DHT22;11538;48.884;8.696;2023-09-08T14:05:16;39.70;99.90
22742;DHT22;11538;48.884;8.696;2023-09-08T14:07:51;39.70;99.90
22742;DHT22;11538;48.884;8.696;2023-09-08T14:10:31;39.50;99.90
22742;DHT22;11538;48.884;8.696;2023-09-08T14:13:16;39.50;99.90
22742;DHT22;11538;48.884;8.696;2023-09-08T14:15:43;39.40;99.90
22742;DHT22;11538;48.884;8.696;2023-09-08T14:18:11;39.30;99.90
22742;DHT22;11538;48.884;8.696;2023-09-08T14:20:41;39.20;99.90
22742;DHT22;11538;48.884;8.696;2023-09-08T14:23:09;39.10;99.90
22742;DHT22;11538;48.884;8.696;2023-09-08T14:25:36;39.00;99.90
22742;DHT22;11538;48.884;8.696;2023-09-08T14:28:04;38.90;99.90
22742;DHT22;11538;48.884;8.696;2023-09-08T14:30:34;38.80;99.90
22742;DHT22;11538;48.884;8.696;2023-09-08T14:33:01;38.70;99.90
22742;DHT22;11538;48.884;8.696;2023-09-08T14:35:29;38.50;99.90
22742;DHT22;11538;48.884;8.696;2023-09-08T14:37:57;38.30;99.90
22742;DHT22;11538;48.884;8.696;2023-09-08T14:40:23;38.20;99.90
22742;DHT22;11538;48.884;8.696;2023-09-08T14:42:50;38.00;99.90
22742;DHT22;11538;48.884;8.696;2023-09-08T14:45:21;37.90;99.90
22742;DHT22;11538;48.884;8.696;2023-09-08T14:47:49;37.80;99.90
22742;DHT22;11538;48.884;8.696;2023-09-08T14:50:16;37.60;99.90
22742;DHT22;11538;48.884;8.696;2023-09-08T14:52:43;37.40;99.90
22742;DHT22;11538;48.884;8.696;2023-09-08T14:55:10;37.30;99.90
22742;DHT22;11538;48.884;8.696;2023-09-08T14:57:38;37.10;99.90
22742;DHT22;11538;48.884;8.696;2023-09-08T15:00:05;36.80;99.90
22742;DHT22;11538;48.884;8.696;2023-09-08T15:02:35;36.40;99.90
22742;DHT22;11538;48.884;8.696;2023-09-08T15:05:02;35.90;99.90
22742;DHT22;11538;48.884;8.696;2023-09-08T15:07:29;35.40;99.90
22742;DHT22;11538;48.884;8.696;2023-09-08T15:09:56;35.00;99.90
22742;DHT22;11538;48.884;8.696;2023-09-08T15:12:24;34.60;99.90
22742;DHT22;11538;48.884;8.696;2023-09-08T15:14:50;34.20;99.90
22742;DHT22;11538;48.884;8.696;2023-09-08T15:17:17;33.80;99.90
22742;DHT22;11538;48.884;8.696;2023-09-08T15:19:44;33.50;99.90
22742;DHT22;11538;48.884;8.696;2023-09-08T15:22:11;33.20;99.90
22742;DHT22;11538;48.884;8.696;2023-09-08T15:24:42;32.90;99.90
22742;DHT22;11538;48.884;8.696;2023-09-08T15:27:09;32.70;99.90
22742;DHT22;11538;48.884;8.696;2023-09-08T15:29:35;32.40;99.90
22742;DHT22;11538;48.884;8.696;2023-09-08T15:32:03;32.20;99.90
22742;DHT22;11538;48.884;8.696;2023-09-08T15:34:30;32.00;99.90
22742;DHT22;11538;48.884;8.696;2023-09-08T15:36:57;31.90;99.90
22742;DHT22;11538;48.884;8.696;2023-09-08T15:39:24;31.70;99.90
22742;DHT22;11538;48.884;8.696;2023-09-08T15:41:50;31.50;99.90
22742;DHT22;11538;48.884;8.696;2023-09-08T15:44:17;31.30;99.90